Time;durP1;ratioP1;P1;durP2;ratioP2;P2;SDS_P1;SDS_P2;PMS_P1;PMS_P2;Temp;Humidity;BMP_temperature;BMP_pressure;BME280_temperature;BME280_humidity;BME280_pressure;Samples;Min_cycle;Max_cycle;Signal;HPM_P1;HPM_P2
2022/11/09 00:05:00;;;;;;;16.02;4.72;;;;;;;13.17;100.00;100347.56;10547339;28;20040;-73
2022/11/09 00:10:00;;;;;;;10.48;3.88;;;;;;;12.98;100.00;100341.28;10547692;28;20032;-73
2022/11/09 00:15:00;;;;;;;5.65;2.88;;;;;;;12.79;100.00;100341.31;10548618;28;20040;-71
2022/11/09 00:20:01;;;;;;;10.93;2.45;;;;;;;12.70;100.00;100348.09;10551557;28;20111;-73
2022/11/09 00:25:01;;;;;;;9.25;2.60;;;;;;;12.57;100.00;100350.94;10553950;28;20391;-72
2022/11/09 00:30:01;;;;;;;13.00;3.70;;;;;;;12.46;100.00;100343.53;10556386;28;20108;-73
2022/11/09 00:35:02;;;;;;;4.70;3.03;;;;;;;12.43;100.00;100349.41;10546953;28;20117;-72
2022/11/09 00:40:03;;;;;;;15.40;4.07;;;;;;;12.41;100.00;100349.66;10546745;28;20040;-72
2022/11/09 00:45:03;;;;;;;13.38;4.47;;;;;;;12.28;100.00;100347.88;10545720;28;20130;-73
2022/11/09 00:50:04;;;;;;;6.68;3.08;;;;;;;12.28;100.00;100342.44;10511780;28;20077;-74
2022/11/09 00:55:05;;;;;;;10.63;3.30;;;;;;;12.27;100.00;100348.09;10544022;28;20040;-74
2022/11/09 01:00:06;;;;;;;4.90;2.92;;;;;;;12.23;100.00;100346.88;10561620;28;20085;-73
2022/11/09 01:05:06;;;;;;;5.60;3.50;;;;;;;12.27;100.00;100348.09;10545771;28;20438;-73
2022/11/09 01:10:07;;;;;;;9.73;2.35;;;;;;;12.26;100.00;100351.88;10546351;28;20038;-73
2022/11/09 01:15:08;;;;;;;14.60;3.83;;;;;;;12.18;100.00;100352.94;10545437;28;20032;-73
2022/11/09 01:20:09;;;;;;;10.68;2.80;;;;;;;12.21;100.00;100346.25;10545487;28;20135;-73
2022/11/09 01:25:09;;;;;;;24.17;3.05;;;;;;;12.21;100.00;100348.97;10544484;28;20056;-74
2022/11/09 01:30:10;;;;;;;19.15;4.50;;;;;;;12.19;100.00;100357.34;10543927;28;20032;-72
2022/11/09 01:35:10;;;;;;;15.00;4.40;;;;;;;12.21;100.00;100360.66;10542498;28;20024;-74
2022/11/09 01:40:11;;;;;;;10.45;3.17;;;;;;;12.11;100.00;100371.19;10542929;28;20035;-73
2022/11/09 01:45:18;;;;;;;4.25;2.25;;;;;;;12.17;100.00;100364.88;10544116;28;20115;-73
2022/11/09 01:50:22;;;;;;;11.93;4.40;;;;;;;12.36;100.00;100360.34;10544359;28;20452;-72
2022/11/09 01:55:23;;;;;;;16.15;5.00;;;;;;;12.44;100.00;100370.06;10509172;28;20127;-73
2022/11/09 02:00:23;;;;;;;8.45;4.03;;;;;;;12.51;100.00;100366.25;10543198;28;20032;-73
2022/11/09 02:05:26;;;;;;;25.50;4.07;;;;;;;12.55;100.00;100374.78;10541402;28;20518;-73
2022/11/09 02:10:46;;;;;;;6.05;3.20;;;;;;;12.59;100.00;100356.97;10525140;28;20501;-72
2022/11/09 02:15:48;;;;;;;15.45;4.10;;;;;;;12.57;100.00;100356.34;10541527;28;20034;-74
2022/11/09 02:20:49;;;;;;;5.97;2.78;;;;;;;12.53;100.00;100368.72;10524289;28;20033;-72
2022/11/09 02:25:55;;;;;;;5.53;3.17;;;;;;;12.40;100.00;100363.44;10541854;28;20020;-72
2022/11/09 02:30:56;;;;;;;11.23;3.13;;;;;;;12.34;100.00;100371.41;10542257;28;20361;-73
2022/11/09 02:35:56;;;;;;;6.85;3.97;;;;;;;12.33;100.00;100385.22;10525339;28;20040;-73
2022/11/09 02:40:57;;;;;;;9.48;3.50;;;;;;;12.26;100.00;100382.56;10548255;28;20032;-74
2022/11/09 02:45:57;;;;;;;9.23;3.53;;;;;;;12.14;100.00;100373.47;10550912;28;20036;-72
2022/11/09 02:50:57;;;;;;;12.90;3.63;;;;;;;12.05;100.00;100386.47;10546104;28;20449;-73
2022/11/09 02:55:58;;;;;;;11.65;3.15;;;;;;;12.04;100.00;100371.22;10541460;28;20040;-73
2022/11/09 03:00:58;;;;;;;4.38;2.47;;;;;;;11.98;100.00;100374.00;10541161;28;20040;-74
2022/11/09 03:05:59;;;;;;;7.25;2.67;;;;;;;11.90;100.00;100360.69;10541661;28;20032;-73
2022/11/09 03:10:59;;;;;;;19.20;4.50;;;;;;;11.90;100.00;100376.97;10540595;28;20486;-73
2022/11/09 03:16:04;;;;;;;9.15;3.03;;;;;;;11.96;100.00;100392.38;10540402;28;20495;-74
2022/11/09 03:21:05;;;;;;;7.63;2.20;;;;;;;12.12;100.00;100402.69;10540076;28;20060;-73
2022/11/09 03:26:05;;;;;;;7.30;3.65;;;;;;;12.06;100.00;100412.56;10540528;28;20036;-74
2022/11/09 03:31:06;;;;;;;5.30;3.75;;;;;;;11.93;100.00;100414.50;10540151;28;20067;-73
2022/11/09 03:36:07;;;;;;;11.80;4.40;;;;;;;11.87;100.00;100421.66;10540139;28;20101;-73
2022/11/09 03:41:08;;;;;;;12.13;4.20;;;;;;;11.84;100.00;100414.78;10541546;28;20081;-73
2022/11/09 03:46:08;;;;;;;11.00;3.88;;;;;;;11.86;100.00;100434.38;10555017;28;20125;-73
2022/11/09 03:51:08;;;;;;;15.35;3.95;;;;;;;11.96;100.00;100435.78;10538601;28;20040;-73
2022/11/09 03:56:09;;;;;;;7.32;2.63;;;;;;;12.05;100.00;100429.06;10539809;28;20043;-74
2022/11/09 04:01:09;;;;;;;6.80;2.60;;;;;;;12.21;100.00;100452.13;10539604;28;20063;-75
2022/11/09 04:06:10;;;;;;;9.77;2.83;;;;;;;11.86;100.00;100461.50;10539434;28;20460;-75
2022/11/09 04:11:10;;;;;;;10.40;3.25;;;;;;;11.69;100.00;100457.59;10539261;28;20039;-74
2022/11/09 04:16:11;;;;;;;3.35;2.22;;;;;;;11.60;100.00;100467.03;10539329;28;20111;-74
2022/11/09 04:21:11;;;;;;;8.43;3.53;;;;;;;11.49;100.00;100451.44;10538596;28;20055;-74
2022/11/09 04:26:12;;;;;;;8.15;3.20;;;;;;;11.52;100.00;100469.97;10542092;28;20063;-75
2022/11/09 04:31:12;;;;;;;6.20;3.00;;;;;;;11.46;100.00;100470.84;10547275;28;20036;-74
2022/11/09 04:36:12;;;;;;;10.93;3.10;;;;;;;11.35;100.00;100456.88;10546600;28;20043;-73
2022/11/09 04:41:13;;;;;;;6.70;3.00;;;;;;;11.31;100.00;100480.06;10545716;28;20039;-74
2022/11/09 04:46:13;;;;;;;5.93;1.98;;;;;;;11.24;100.00;100470.28;10546088;28;20040;-75
2022/11/09 04:51:13;;;;;;;6.15;2.88;;;;;;;11.18;100.00;100458.41;10561084;28;20059;-73
2022/11/09 04:56:14;;;;;;;8.52;3.30;;;;;;;11.24;100.00;100452.16;10544411;28;20036;-75
2022/11/09 05:01:14;;;;;;;9.93;4.15;;;;;;;11.24;100.00;100441.31;10545613;28;20085;-75
2022/11/09 05:06:33;;;;;;;2.95;2.30;;;;;;;11.20;100.00;100455.47;10545358;28;20039;-75
2022/11/09 05:11:34;;;;;;;6.35;2.58;;;;;;;11.13;100.00;100458.19;10559020;28;20448;-73
2022/11/09 05:16:34;;;;;;;7.75;3.63;;;;;;;11.09;100.00;100452.38;10544757;28;20115;-75
2022/11/09 05:21:35;;;;;;;14.02;2.75;;;;;;;11.06;100.00;100450.09;10543186;28;20059;-74
2022/11/09 05:26:36;;;;;;;3.85;1.80;;;;;;;10.90;100.00;100450.53;10544327;28;20044;-74
2022/11/09 05:31:37;;;;;;;12.50;3.38;;;;;;;10.87;100.00;100465.34;10525737;28;20090;-72
2022/11/09 05:36:38;;;;;;;8.15;4.53;;;;;;;10.83;100.00;100469.50;10543253;28;20078;-73
2022/11/09 05:41:38;;;;;;;14.25;3.53;;;;;;;10.81;100.00;100471.59;10543537;28;20032;-74
2022/11/09 05:46:38;;;;;;;18.85;4.38;;;;;;;10.73;100.00;100466.41;10544401;28;20179;-74
2022/11/09 05:51:39;;;;;;;6.05;3.33;;;;;;;10.69;100.00;100471.41;10542483;28;20039;-71
2022/11/09 05:56:39;;;;;;;12.50;2.83;;;;;;;10.75;100.00;100468.88;10542371;28;20039;-75
2022/11/09 06:01:40;;;;;;;12.82;3.75;;;;;;;10.72;100.00;100478.28;10541685;28;20086;-74
2022/11/09 06:06:42;;;;;;;10.50;3.22;;;;;;;10.77;100.00;100478.47;10543648;28;20058;-75
2022/11/09 06:11:42;;;;;;;12.77;3.88;;;;;;;10.85;100.00;100462.03;10540483;28;20031;-75
2022/11/09 06:16:42;;;;;;;7.75;3.45;;;;;;;10.88;100.00;100477.00;10542191;28;20043;-74
2022/11/09 06:21:43;;;;;;;4.63;3.10;;;;;;;10.90;100.00;100469.50;10558255;28;20063;-74
2022/11/09 06:26:43;;;;;;;5.80;3.25;;;;;;;10.94;100.00;100479.72;10542652;28;20040;-73
2022/11/09 06:31:45;;;;;;;12.00;3.03;;;;;;;10.97;100.00;100483.03;10542158;28;20064;-74
2022/11/09 06:36:45;;;;;;;4.65;3.25;;;;;;;10.96;100.00;100486.81;10542341;28;20141;-73
2022/11/09 06:41:47;;;;;;;4.45;2.63;;;;;;;10.89;100.00;100497.66;10556930;28;20164;-74
2022/11/09 06:46:47;;;;;;;14.10;4.45;;;;;;;10.98;100.00;100496.38;10540506;28;20459;-73
2022/11/09 06:51:47;;;;;;;8.73;4.68;;;;;;;11.00;100.00;100494.28;10541765;28;20068;-74
2022/11/09 06:56:48;;;;;;;3.33;2.78;;;;;;;11.05;100.00;100496.38;10540959;28;20036;-74
2022/11/09 07:01:48;;;;;;;8.07;3.85;;;;;;;11.12;100.00;100495.31;10541241;28;20440;-74
2022/11/09 07:06:49;;;;;;;10.38;2.88;;;;;;;11.20;100.00;100498.84;10541103;28;20036;-73
2022/11/09 07:11:49;;;;;;;12.65;3.97;;;;;;;11.28;100.00;100504.03;10540547;28;20032;-75
2022/11/09 07:16:49;;;;;;;9.05;3.63;;;;;;;11.36;100.00;100495.69;10538903;28;20043;-75
2022/11/09 07:21:50;;;;;;;7.90;3.00;;;;;;;11.48;100.00;100504.00;10538565;28;20109;-74
2022/11/09 07:26:50;;;;;;;10.30;3.80;;;;;;;11.56;100.00;100504.59;10540467;28;20036;-74
2022/11/09 07:31:50;;;;;;;10.25;2.88;;;;;;;11.56;100.00;100501.06;10539646;28;20032;-74
2022/11/09 07:36:54;;;;;;;11.75;2.78;;;;;;;11.50;100.00;100501.91;10539878;28;20476;-75
2022/11/09 07:41:55;;;;;;;8.15;2.55;;;;;;;11.44;100.00;100506.28;10538506;28;20353;-74
2022/11/09 07:46:55;;;;;;;17.30;4.78;;;;;;;12.03;100.00;100518.84;10540772;28;20044;-74
2022/11/09 07:51:55;;;;;;;12.35;2.78;;;;;;;12.30;100.00;100524.13;10547592;28;20028;-74
2022/11/09 07:56:56;;;;;;;7.45;3.17;;;;;;;12.55;100.00;100537.75;10554166;28;20028;-76
2022/11/09 08:01:57;;;;;;;7.30;4.07;;;;;;;12.85;100.00;100539.81;10547057;28;20490;-75
2022/11/09 08:06:57;;;;;;;8.57;3.15;;;;;;;12.60;100.00;100545.22;10533229;28;20044;-76
2022/11/09 08:11:57;;;;;;;23.38;3.42;;;;;;;12.29;100.00;100549.63;10553127;28;20028;-74
2022/11/09 08:16:58;;;;;;;13.15;3.78;;;;;;;12.58;100.00;100561.75;10548080;28;20479;-73
2022/11/09 08:21:59;;;;;;;13.77;3.15;;;;;;;12.41;100.00;100556.03;10547472;28;20075;-75
2022/11/09 08:26:59;;;;;;;2.58;2.38;;;;;;;12.54;100.00;100560.53;10546225;28;20064;-75
2022/11/09 08:31:59;;;;;;;7.07;3.45;;;;;;;12.61;100.00;100564.03;10546200;28;20058;-74
2022/11/09 08:37:01;;;;;;;10.85;2.40;;;;;;;12.61;100.00;100572.19;10544672;28;20107;-74
2022/11/09 08:42:01;;;;;;;11.75;2.80;;;;;;;12.31;100.00;100553.75;10561541;28;20101;-73
2022/11/09 08:47:01;;;;;;;11.77;3.92;;;;;;;12.43;100.00;100574.78;10546550;28;20039;-75
2022/11/09 08:52:02;;;;;;;6.97;2.58;;;;;;;12.72;100.00;100584.22;10546146;28;20031;-74
2022/11/09 08:57:02;;;;;;;8.73;3.05;;;;;;;12.92;100.00;100584.06;10547121;28;20043;-75
2022/11/09 09:02:03;;;;;;;14.40;3.97;;;;;;;12.60;100.00;100581.38;10546291;28;20032;-74
2022/11/09 09:07:03;;;;;;;16.92;4.20;;;;;;;12.43;100.00;100594.63;10546068;28;20546;-75
2022/11/09 09:12:05;;;;;;;15.85;4.70;;;;;;;12.47;100.00;100576.03;10543392;28;20036;-75
2022/11/09 09:17:05;;;;;;;8.85;2.95;;;;;;;12.50;100.00;100587.28;10544532;28;20085;-73
2022/11/09 09:22:06;;;;;;;5.68;3.85;;;;;;;12.63;100.00;100582.81;10559784;28;20097;-77
2022/11/09 09:27:06;;;;;;;14.93;4.05;;;;;;;12.54;100.00;100585.81;10543568;28;20547;-74
2022/11/09 09:32:06;;;;;;;11.35;4.43;;;;;;;12.93;100.00;100570.28;10543828;28;20487;-75
2022/11/09 09:37:07;;;;;;;6.55;2.53;;;;;;;12.98;100.00;100596.78;10545110;28;20063;-72
2022/11/09 09:42:20;;;;;;;21.80;3.67;;;;;;;12.91;100.00;100582.41;10543853;28;20047;-74
2022/11/09 09:47:44;;;;;;;9.73;3.63;;;;;;;13.25;100.00;100605.59;10544647;28;20031;-73
2022/11/09 09:52:51;;;;;;;9.30;3.50;;;;;;;13.25;100.00;100606.44;10528757;28;20027;-75
2022/11/09 09:57:55;;;;;;;4.07;3.17;;;;;;;13.10;100.00;100618.66;10543627;28;20388;-73
2022/11/09 10:02:56;;;;;;;8.45;3.60;;;;;;;13.12;100.00;100628.25;10508259;28;20054;-74
2022/11/09 10:08:11;;;;;;;21.25;3.70;;;;;;;12.79;100.00;100642.94;10541990;28;20035;-73
2022/11/09 10:13:37;;;;;;;9.05;4.20;;;;;;;12.27;100.00;100638.56;10542756;28;20032;-75
2022/11/09 10:19:05;;;;;;;3.25;2.00;;;;;;;12.37;100.00;100638.13;10541745;28;20035;-75
2022/11/09 10:24:44;;;;;;;13.52;3.42;;;;;;;12.57;100.00;100625.25;10542812;28;20051;-74
2022/11/09 10:29:45;;;;;;;5.70;2.53;;;;;;;13.09;100.00;100644.19;10540046;28;20048;-74
2022/11/09 10:35:09;;;;;;;15.43;3.70;;;;;;;13.09;100.00;100627.88;10523591;28;20371;-73
2022/11/09 10:40:09;;;;;;;13.48;2.55;;;;;;;13.36;100.00;100632.06;10542990;28;20027;-74
2022/11/09 10:45:12;;;;;;;13.63;4.53;;;;;;;13.69;100.00;100623.59;10540988;28;20108;-75
2022/11/09 10:50:25;;;;;;;10.70;2.95;;;;;;;13.61;100.00;100628.50;10539710;28;20039;-75
2022/11/09 10:55:27;;;;;;;12.02;3.58;;;;;;;13.26;100.00;100624.41;10509062;28;20096;-73
2022/11/09 11:00:27;;;;;;;6.85;3.13;;;;;;;13.02;100.00;100623.31;10541289;28;20036;-73
2022/11/09 11:05:28;;;;;;;13.48;3.08;;;;;;;12.85;100.00;100621.34;10539113;28;20028;-74
2022/11/09 11:10:29;;;;;;;7.82;2.50;;;;;;;12.91;100.00;100625.91;10541354;28;20027;-73
2022/11/09 11:15:39;;;;;;;2.30;1.50;;;;;;;13.00;100.00;100608.28;10557322;28;20032;-75
2022/11/09 11:20:40;;;;;;;3.63;2.35;;;;;;;13.15;100.00;100657.72;10540496;28;20474;-72
2022/11/09 11:25:52;;;;;;;12.23;2.67;;;;;;;13.27;100.00;100657.88;10540642;28;20059;-73
2022/11/09 11:30:53;;;;;;;2.90;1.77;;;;;;;13.29;100.00;100663.09;10541855;28;20032;-74
2022/11/09 11:36:19;;;;;;;2.65;1.73;;;;;;;14.93;100.00;100642.41;10542866;28;20032;-73
2022/11/09 11:41:47;;;;;;;3.63;1.92;;;;;;;15.24;96.11;100635.00;10547921;28;20040;-73
2022/11/09 11:47:01;;;;;;;10.80;1.88;;;;;;;15.47;100.00;100656.84;10546524;28;20089;-73
2022/11/09 11:52:13;;;;;;;6.82;2.40;;;;;;;15.49;100.00;100654.72;10543652;28;20055;-74
2022/11/09 11:57:22;;;;;;;9.52;1.70;;;;;;;15.09;100.00;100651.81;10544937;28;20521;-73
2022/11/09 12:02:44;;;;;;;6.50;3.35;;;;;;;15.18;100.00;100663.22;10544723;28;20314;-74
2022/11/09 12:07:44;;;;;;;7.53;3.30;;;;;;;14.93;100.00;100661.47;10544236;28;20034;-74
2022/11/09 12:13:07;;;;;;;3.50;2.55;;;;;;;15.40;100.00;100645.22;10545974;28;20034;-73
2022/11/09 12:18:20;;;;;;;5.20;2.65;;;;;;;15.50;100.00;100653.66;10546737;28;20376;-75
2022/11/09 12:23:37;;;;;;;11.38;2.38;;;;;;;14.91;100.00;100666.34;10546720;28;20055;-74
2022/11/09 12:28:55;;;;;;;5.80;2.88;;;;;;;15.48;100.00;100666.72;10545970;28;20464;-74
2022/11/09 12:34:26;;;;;;;10.57;1.77;;;;;;;14.98;97.21;100669.81;10542686;28;20036;-75
2022/11/09 12:39:44;;;;;;;9.85;2.80;;;;;;;15.17;97.16;100667.03;10517694;28;20113;-75
2022/11/09 12:45:06;;;;;;;6.95;2.80;;;;;;;14.62;100.00;100676.19;10537872;28;20031;-74
2022/11/09 12:50:15;;;;;;;4.10;1.75;;;;;;;14.36;100.00;100683.59;10528710;28;20028;-73
2022/11/09 12:55:35;;;;;;;6.35;1.77;;;;;;;14.31;100.00;100685.34;10545053;28;20084;-74
2022/11/09 13:00:35;;;;;;;3.20;1.55;;;;;;;14.86;100.00;100693.47;10545056;28;20046;-74
2022/11/09 13:05:36;;;;;;;2.33;2.13;;;;;;;14.79;100.00;100687.28;10546704;28;20420;-74
2022/11/09 13:10:37;;;;;;;8.00;2.75;;;;;;;14.70;100.00;100702.28;10545000;28;20077;-72
2022/11/09 13:15:38;;;;;;;4.05;2.50;;;;;;;14.18;100.00;100705.38;10526067;28;20396;-75
2022/11/09 13:20:40;;;;;;;4.22;2.60;;;;;;;14.36;100.00;100710.03;10528004;28;20084;-74
2022/11/09 13:25:40;;;;;;;7.03;1.85;;;;;;;14.19;100.00;100726.94;10543327;28;20052;-74
2022/11/09 13:30:41;;;;;;;6.95;2.65;;;;;;;14.33;100.00;100729.53;10544360;28;20030;-73
2022/11/09 13:35:42;;;;;;;9.30;2.80;;;;;;;14.35;100.00;100727.41;10526284;28;20525;-73
2022/11/09 13:40:43;;;;;;;5.25;2.30;;;;;;;14.21;100.00;100734.06;10544701;28;20085;-73
2022/11/09 13:45:45;;;;;;;4.88;1.83;;;;;;;13.96;100.00;100732.22;10545406;28;20032;-74
2022/11/09 13:50:51;;;;;;;9.43;2.65;;;;;;;13.90;100.00;100750.25;10524791;28;20028;-73
2022/11/09 13:55:52;;;;;;;11.02;2.70;;;;;;;13.84;100.00;100756.59;10525636;28;20077;-74
2022/11/09 14:00:52;;;;;;;9.48;2.72;;;;;;;13.72;100.00;100764.66;10542939;28;20089;-74
2022/11/09 14:05:57;;;;;;;12.30;2.25;;;;;;;13.82;100.00;100768.78;10542219;28;20093;-73
2022/11/09 14:11:16;;;;;;;3.40;1.67;;;;;;;13.52;100.00;100777.56;10542131;28;20024;-73
2022/11/09 14:16:24;;;;;;;10.70;2.40;;;;;;;13.77;100.00;100771.31;10542846;28;20032;-74
2022/11/09 14:21:28;;;;;;;17.00;3.47;;;;;;;14.00;100.00;100782.41;10542067;28;20067;-74
2022/11/09 14:26:28;;;;;;;30.27;2.60;;;;;;;14.04;100.00;100789.13;10544075;28;20517;-74
2022/11/09 14:31:30;;;;;;;14.25;3.47;;;;;;;14.13;100.00;100806.81;10540476;28;20468;-73
2022/11/09 14:36:32;;;;;;;3.92;1.45;;;;;;;13.75;100.00;100800.63;10541162;28;20040;-74
2022/11/09 14:41:32;;;;;;;7.18;3.53;;;;;;;13.48;100.00;100831.59;10540790;28;20032;-73
2022/11/09 14:46:33;;;;;;;12.73;2.72;;;;;;;13.46;100.00;100832.84;10523729;28;20062;-74
2022/11/09 14:51:37;;;;;;;12.85;2.30;;;;;;;13.42;100.00;100845.22;10541058;28;20024;-74
2022/11/09 14:56:37;;;;;;;6.70;2.90;;;;;;;13.44;100.00;100848.56;10523158;28;20032;-74
2022/11/09 15:01:38;;;;;;;4.72;1.58;;;;;;;13.41;100.00;100851.72;10540003;28;20102;-73
2022/11/09 15:06:49;;;;;;;3.13;1.98;;;;;;;13.30;100.00;100864.09;10540531;28;20079;-74
2022/11/09 15:11:50;;;;;;;1.92;1.75;;;;;;;13.31;100.00;100868.53;10537975;28;20032;-74
2022/11/09 15:17:18;;;;;;;13.60;2.63;;;;;;;13.28;100.00;100879.00;10540035;28;20036;-73
2022/11/09 15:22:49;;;;;;;9.15;2.95;;;;;;;13.22;100.00;100878.75;10527481;28;20179;-74
2022/11/09 15:27:59;;;;;;;5.55;2.25;;;;;;;13.18;100.00;100890.31;10540900;28;20380;-72
2022/11/09 15:33:00;;;;;;;6.40;2.08;;;;;;;13.04;100.00;100894.94;10540623;28;20456;-73
2022/11/09 15:38:00;;;;;;;7.53;1.85;;;;;;;12.88;100.00;100903.53;10550158;28;20028;-73
2022/11/09 15:43:01;;;;;;;13.10;2.55;;;;;;;12.71;100.00;100909.44;10548227;28;20044;-73
2022/11/09 15:48:01;;;;;;;3.55;2.10;;;;;;;12.60;100.00;100915.50;10540395;28;20043;-73
2022/11/09 15:53:01;;;;;;;4.60;1.45;;;;;;;12.53;100.00;100930.97;10538484;28;20408;-72
2022/11/09 15:58:02;;;;;;;5.70;1.70;;;;;;;12.51;100.00;100939.34;10539389;28;20044;-74
2022/11/09 16:03:02;;;;;;;6.78;2.58;;;;;;;12.54;100.00;100947.06;10555929;28;20032;-73
2022/11/09 16:08:03;;;;;;;3.40;1.35;;;;;;;12.52;100.00;100961.91;10554789;28;20062;-74
2022/11/09 16:13:05;;;;;;;3.58;2.08;;;;;;;12.45;100.00;100969.22;10537688;28;20035;-74
2022/11/09 16:18:05;;;;;;;9.43;1.98;;;;;;;12.59;100.00;100970.06;10538155;28;20128;-73
2022/11/09 16:23:07;;;;;;;4.35;2.78;;;;;;;12.55;100.00;100980.50;10542198;28;20475;-74
2022/11/09 16:28:08;;;;;;;5.15;2.35;;;;;;;12.44;100.00;100994.69;10547434;28;20044;-74
2022/11/09 16:33:08;;;;;;;5.93;2.40;;;;;;;12.35;100.00;101002.22;10545549;28;20024;-74
2022/11/09 16:38:09;;;;;;;12.43;2.53;;;;;;;12.44;100.00;101006.38;10547013;28;20368;-74
2022/11/09 16:43:09;;;;;;;3.00;1.77;;;;;;;12.31;100.00;101009.09;10527827;28;20032;-73
2022/11/09 16:48:10;;;;;;;7.22;2.10;;;;;;;12.18;100.00;101023.47;10528599;28;20027;-73
2022/11/09 16:53:10;;;;;;;11.63;2.47;;;;;;;12.19;100.00;101017.03;10545028;28;20031;-73
2022/11/09 16:58:11;;;;;;;5.05;2.13;;;;;;;12.21;100.00;101039.34;10543987;28;20089;-74
2022/11/09 17:03:12;;;;;;;7.13;2.25;;;;;;;12.31;100.00;101050.66;10544902;28;20127;-76
2022/11/09 17:08:12;;;;;;;10.40;2.88;;;;;;;12.39;100.00;101057.78;10545222;28;20475;-73
2022/11/09 17:13:13;;;;;;;7.20;2.53;;;;;;;12.19;100.00;101052.31;10543783;28;20028;-73
2022/11/09 17:18:13;;;;;;;8.18;2.00;;;;;;;12.21;100.00;101071.94;10544026;28;20028;-73
2022/11/09 17:23:16;;;;;;;10.32;1.90;;;;;;;12.30;100.00;101081.56;10544912;28;20471;-73
2022/11/09 17:28:17;;;;;;;3.03;2.03;;;;;;;12.24;100.00;101079.66;10543410;28;20543;-74
2022/11/09 17:33:17;;;;;;;3.80;3.13;;;;;;;12.20;100.00;101091.97;10526436;28;20107;-74
2022/11/09 17:38:18;;;;;;;5.22;2.20;;;;;;;12.05;100.00;101094.84;10543858;28;20040;-74
2022/11/09 17:43:19;;;;;;;3.83;2.20;;;;;;;12.03;100.00;101112.41;10558983;28;20089;-74
2022/11/09 17:48:19;;;;;;;6.03;3.15;;;;;;;11.88;100.00;101119.84;10544109;28;20465;-74
2022/11/09 17:53:19;;;;;;;8.73;1.88;;;;;;;11.88;100.00;101125.25;10542279;28;20028;-73
2022/11/09 17:58:20;;;;;;;6.72;1.98;;;;;;;12.01;100.00;101137.00;10559232;28;20032;-73
2022/11/09 18:03:21;;;;;;;8.75;2.42;;;;;;;12.12;100.00;101134.75;10544002;28;20032;-72
2022/11/09 18:08:22;;;;;;;6.07;2.63;;;;;;;12.05;100.00;101148.28;10558788;28;20109;-74
2022/11/09 18:13:22;;;;;;;5.65;2.60;;;;;;;11.98;100.00;101142.84;10542761;28;20028;-73
2022/11/09 18:18:24;;;;;;;6.30;2.90;;;;;;;12.10;100.00;101186.53;10525196;28;20107;-73
2022/11/09 18:23:24;;;;;;;4.28;3.13;;;;;;;11.33;100.00;101177.44;10557991;28;20139;-72
2022/11/09 18:28:24;;;;;;;4.82;3.45;;;;;;;11.17;100.00;101180.41;10542466;28;20278;-72
2022/11/09 18:33:25;;;;;;;20.67;3.33;;;;;;;11.06;100.00;101179.03;10542202;28;20059;-73
2022/11/09 18:38:26;;;;;;;10.02;3.15;;;;;;;10.97;100.00;101187.50;10541467;28;20032;-74
2022/11/09 18:43:26;;;;;;;3.80;2.97;;;;;;;10.87;100.00;101194.06;10542189;28;20059;-75
2022/11/09 18:48:27;;;;;;;9.52;3.08;;;;;;;10.79;100.00;101196.91;10523529;28;20555;-74
2022/11/09 18:53:31;;;;;;;6.25;2.80;;;;;;;10.72;100.00;101201.44;10540908;28;20044;-71
2022/11/09 18:58:32;;;;;;;5.20;2.80;;;;;;;10.65;100.00;101212.16;10524743;28;20035;-73
2022/11/09 19:03:32;;;;;;;7.22;3.53;;;;;;;10.82;100.00;101218.22;10557092;28;20043;-73
2022/11/09 19:13:53;;;;;;;8.10;3.70;;;;;;;10.93;100.00;101233.94;10540598;28;20028;-74
2022/11/09 19:18:53;;;;;;;15.25;5.28;;;;;;;11.01;100.00;101251.09;10541157;28;20028;-74
2022/11/09 19:23:54;;;;;;;6.03;2.75;;;;;;;11.04;100.00;101265.16;10522076;28;20063;-73
2022/11/09 19:28:54;;;;;;;9.65;2.55;;;;;;;11.08;100.00;101277.28;10540068;28;20074;-74
2022/11/09 19:33:55;;;;;;;13.27;4.05;;;;;;;10.94;100.00;101287.13;10541385;28;20043;-73
2022/11/09 19:38:55;;;;;;;9.55;3.38;;;;;;;10.79;100.00;101283.59;10540751;28;20380;-74
2022/11/09 19:43:59;;;;;;;12.60;4.20;;;;;;;10.85;100.00;101292.84;10539975;28;20417;-74
2022/11/09 19:48:59;;;;;;;6.78;3.83;;;;;;;10.94;100.00;101300.69;10538695;28;20107;-74
2022/11/09 19:54:01;;;;;;;10.75;3.80;;;;;;;10.92;100.00;101310.84;10540262;28;20375;-75
2022/11/09 19:59:01;;;;;;;9.90;2.92;;;;;;;10.98;100.00;101316.56;10543724;28;20051;-74
2022/11/09 20:04:02;;;;;;;13.98;3.72;;;;;;;11.04;100.00;101318.47;10529742;28;20127;-71
2022/11/09 20:09:02;;;;;;;9.77;3.40;;;;;;;11.09;100.00;101332.31;10547103;28;20197;-73
2022/11/09 20:14:03;;;;;;;11.95;4.35;;;;;;;11.18;100.00;101328.47;10563241;28;20036;-73
2022/11/09 20:19:05;;;;;;;9.27;4.00;;;;;;;11.30;100.00;101348.63;10547652;28;20445;-70
2022/11/09 20:24:06;;;;;;;8.70;4.68;;;;;;;11.27;100.00;101357.13;10547475;28;20522;-72
2022/11/09 20:29:06;;;;;;;19.77;4.68;;;;;;;11.21;100.00;101365.19;10546255;28;20399;-73
2022/11/09 20:34:07;;;;;;;26.08;3.67;;;;;;;11.14;100.00;101373.25;10547432;28;20039;-72
2022/11/09 20:39:08;;;;;;;18.38;3.58;;;;;;;10.99;100.00;101370.56;10563287;28;20388;-73
2022/11/09 20:44:09;;;;;;;9.52;3.45;;;;;;;10.81;100.00;101386.34;10547445;28;20523;-73
2022/11/09 20:49:10;;;;;;;15.38;4.07;;;;;;;10.76;100.00;101389.63;10547473;28;20032;-72
2022/11/09 20:54:10;;;;;;;11.32;3.35;;;;;;;10.73;100.00;101400.00;10527983;28;20044;-73
2022/11/09 20:59:11;;;;;;;12.05;3.00;;;;;;;10.67;100.00;101396.16;10545207;28;20071;-73
2022/11/09 21:04:11;;;;;;;13.15;3.08;;;;;;;10.76;100.00;101402.34;10511999;28;20028;-72
2022/11/09 21:09:12;;;;;;;10.55;3.60;;;;;;;10.81;100.00;101400.72;10546564;28;20460;-72
2022/11/09 21:14:12;;;;;;;8.32;3.47;;;;;;;10.88;100.00;101403.53;10545738;28;20077;-71
2022/11/09 21:19:12;;;;;;;17.75;4.55;;;;;;;10.93;100.00;101407.38;10544671;28;20042;-72
2022/11/09 21:29:50;;;;;;;25.50;5.32;;;;;;;10.88;100.00;101434.19;10544955;28;20036;-72
2022/11/09 21:34:50;;;;;;;12.55;4.63;;;;;;;11.03;100.00;101431.47;10546245;28;20059;-72
2022/11/09 21:39:51;;;;;;;6.07;2.75;;;;;;;11.06;100.00;101430.25;10528830;28;20471;-72
2022/11/09 21:44:51;;;;;;;6.00;3.35;;;;;;;11.13;100.00;101439.31;10562220;28;20031;-72
2022/11/09 21:49:52;;;;;;;12.90;4.07;;;;;;;11.15;100.00;101445.41;10542653;28;20071;-72
2022/11/09 21:54:52;;;;;;;14.75;3.85;;;;;;;11.12;100.00;101452.03;10543580;28;20124;-73
2022/11/09 21:59:52;;;;;;;6.05;2.08;;;;;;;11.00;100.00;101460.81;10543858;28;20040;-73
2022/11/09 22:04:53;;;;;;;6.00;3.53;;;;;;;10.77;100.00;101479.88;10543596;28;20085;-72
2022/11/09 22:09:53;;;;;;;17.10;4.35;;;;;;;10.69;100.00;101488.94;10559136;28;20043;-73
2022/11/09 22:25:31;;;;;;;7.47;3.17;;;;;;;10.63;100.00;101478.81;10541152;28;20130;-73
2022/11/09 22:30:32;;;;;;;17.08;3.28;;;;;;;10.56;100.00;101481.44;10542470;28;20036;-72
2022/11/09 22:35:32;;;;;;;5.35;3.17;;;;;;;10.45;100.00;101485.38;10542462;28;20460;-72
2022/11/09 22:40:33;;;;;;;9.30;3.70;;;;;;;10.33;100.00;101494.97;10541416;28;20051;-72
2022/11/09 22:45:33;;;;;;;30.50;5.20;;;;;;;10.26;100.00;101496.72;10523831;28;20032;-73
2022/11/09 22:50:35;;;;;;;22.08;4.93;;;;;;;10.25;100.00;101503.97;10541891;28;20432;-72
2022/11/09 22:55:36;;;;;;;17.65;4.45;;;;;;;10.27;100.00;101508.38;10543680;28;20032;-73
2022/11/09 23:00:36;;;;;;;19.95;4.22;;;;;;;10.31;100.00;101529.50;10548543;28;20043;-71
2022/11/09 23:05:36;;;;;;;17.10;4.65;;;;;;;10.36;100.00;101523.53;10542356;28;20067;-72
2022/11/09 23:10:37;;;;;;;11.35;4.82;;;;;;;10.52;100.00;101536.97;10543484;28;20039;-72
2022/11/09 23:15:37;;;;;;;15.00;4.90;;;;;;;10.63;100.00;101560.06;10540129;28;20036;-72